TimeCEST,TemperatureF,Dew PointF,Humidity,Sea Level PressureIn,VisibilityMPH,Wind Direction,Wind SpeedMPH,Gust SpeedMPH,PrecipitationIn,Events,Conditions,WindDirDegrees,DateUTC
12:00 AM,37.4,30.2,75,30.18,-9999.0,ESE,11.5,-,N/A,,Clear,110,2013-10-04 22:00:00
12:39 AM,35.6,30.2,81,30.18,-9999.0,ESE,6.9,-,N/A,,Clear,110,2013-10-04 22:39:00
1:00 AM,35.6,28.4,75,30.21,-9999.0,SE,5.8,-,N/A,,Clear,130,2013-10-04 23:00:00
1:30 AM,35.6,28.4,75,30.18,-9999.0,ESE,4.6,-,N/A,,Clear,120,2013-10-04 23:30:00
2:00 AM,35,29,71,30.25,16,East,8.9,,,,Clear,100,2013-10-05 00:00:00
2:00 AM,35.6,28.4,75,30.18,-9999.0,East,4.6,-,N/A,,Clear,100,2013-10-05 00:00:00
2:30 AM,33.8,28.4,81,30.18,-9999.0,ESE,2.3,-,N/A,,Clear,110,2013-10-05 00:30:00
3:00 AM,33.8,28.4,81,30.18,-9999.0,SE,4.6,-,N/A,,Clear,130,2013-10-05 01:00:00
3:30 AM,32.0,28.4,87,30.18,-9999.0,ESE,3.5,-,N/A,,Clear,120,2013-10-05 01:30:00
4:00 AM,32.0,28.4,87,30.15,-9999.0,East,4.6,-,N/A,,Clear,100,2013-10-05 02:00:00
4:30 AM,32.0,28.4,87,30.15,-9999.0,East,8.1,-,N/A,,Clear,100,2013-10-05 02:30:00
5:00 AM,30.2,28.4,93,30.12,-9999.0,East,9.2,-,N/A,,Clear,90,2013-10-05 03:00:00
5:30 AM,30.2,28.4,93,30.12,-9999.0,East,8.1,-,N/A,,Clear,100,2013-10-05 03:30:00
6:00 AM,32.0,30.2,93,30.12,-9999.0,East,4.6,-,N/A,,Clear,100,2013-10-05 04:00:00
6:30 AM,30.2,28.4,93,30.12,-9999.0,East,5.8,-,N/A,,Clear,90,2013-10-05 04:30:00
7:00 AM,32.0,28.4,87,30.12,-9999.0,East,4.6,-,N/A,,Clear,100,2013-10-05 05:00:00
7:30 AM,30.2,28.4,93,30.12,-9999.0,East,6.9,-,N/A,,Clear,80,2013-10-05 05:30:00
8:00 AM,33,29,80,30.19,12,East,8.9,,,,Clear,80,2013-10-05 06:00:00
8:00 AM,32.0,28.4,87,30.12,-9999.0,East,6.9,-,N/A,,Clear,90,2013-10-05 06:00:00
8:30 AM,35.6,30.2,81,30.12,-9999.0,East,6.9,-,N/A,,Clear,100,2013-10-05 06:30:00
9:00 AM,37.4,32.0,81,30.09,-9999.0,East,9.2,-,N/A,,Clear,90,2013-10-05 07:00:00
9:30 AM,39.2,32.0,75,30.09,-9999.0,East,9.2,-,N/A,,Clear,100,2013-10-05 07:30:00
10:00 AM,42.8,32.0,66,30.12,-9999.0,East,8.1,-,N/A,,Clear,100,2013-10-05 08:00:00
10:30 AM,42.8,32.0,66,30.12,-9999.0,East,9.2,-,N/A,,Clear,90,2013-10-05 08:30:00
11:00 AM,44.6,32.0,61,30.12,-9999.0,ESE,6.9,-,N/A,,Clear,110,2013-10-05 09:00:00
11:30 AM,46.4,32.0,57,30.12,-9999.0,ESE,5.8,-,N/A,,Clear,120,2013-10-05 09:30:00
12:00 PM,46.4,32.0,57,30.12,-9999.0,SE,5.8,-,N/A,,Clear,130,2013-10-05 10:00:00
12:30 PM,48.2,33.8,58,30.09,-9999.0,ESE,5.8,-,N/A,,Clear,110,2013-10-05 10:30:00
1:00 PM,50.0,33.8,54,30.09,-9999.0,ESE,9.2,-,N/A,,Clear,120,2013-10-05 11:00:00
1:30 PM,50.0,35.6,58,30.09,-9999.0,East,8.1,-,N/A,,Clear,90,2013-10-05 11:30:00
2:00 PM,51.8,33.8,50,30.06,-9999.0,SE,6.9,-,N/A,,Clear,140,2013-10-05 12:00:00
2:10 PM,52,35,39,30.10,19,SE,6.7,,,,Scattered Clouds,140,2013-10-05 12:10:00
2:30 PM,53.6,35.6,51,30.06,-9999.0,Variable,4.6,-,N/A,,Clear,0,2013-10-05 12:30:00
3:00 PM,53.6,35.6,51,30.06,-9999.0,Variable,3.5,-,N/A,,Clear,0,2013-10-05 13:00:00
3:30 PM,53.6,35.6,51,30.06,-9999.0,SSE,4.6,-,N/A,,Clear,150,2013-10-05 13:30:00
4:00 PM,53.6,35.6,51,30.06,-9999.0,SSW,4.6,-,N/A,,Clear,210,2013-10-05 14:00:00
4:30 PM,55.4,35.6,47,30.06,-9999.0,Variable,2.3,-,N/A,,Clear,0,2013-10-05 14:30:00
5:00 PM,53.6,35.6,51,30.06,-9999.0,Variable,1.2,-,N/A,,Clear,0,2013-10-05 15:00:00
5:30 PM,53.6,35.6,51,30.06,-9999.0,Variable,1.2,-,N/A,,Clear,0,2013-10-05 15:30:00
6:00 PM,51.8,35.6,54,30.06,-9999.0,Variable,1.2,-,N/A,,Clear,0,2013-10-05 16:00:00
6:30 PM,50.0,35.6,58,30.06,-9999.0,Variable,1.2,-,N/A,,Clear,0,2013-10-05 16:30:00
7:00 PM,50.0,35.6,58,30.06,-9999.0,Variable,1.2,-,N/A,,Clear,0,2013-10-05 17:00:00
7:30 PM,48.2,35.6,62,30.06,-9999.0,NW,1.2,-,N/A,,Clear,310,2013-10-05 17:30:00
8:00 PM,48,37,54,30.11,12,NNE,2.2,,,,Overcast,30,2013-10-05 18:00:00
8:00 PM,48.2,35.6,62,30.09,-9999.0,NE,4.6,-,N/A,,Clear,50,2013-10-05 18:00:00
8:30 PM,48.2,35.6,62,30.09,-9999.0,Variable,2.3,-,N/A,,Clear,0,2013-10-05 18:30:00
9:00 PM,48.2,35.6,62,30.09,-9999.0,Variable,1.2,-,N/A,,Clear,0,2013-10-05 19:00:00
9:30 PM,48.2,35.6,62,30.09,-9999.0,Variable,1.2,-,N/A,,Clear,0,2013-10-05 19:30:00
10:00 PM,48.2,35.6,62,30.09,-9999.0,Variable,2.3,-,N/A,,Clear,0,2013-10-05 20:00:00
10:30 PM,48.2,37.4,66,30.09,-9999.0,Variable,1.2,-,N/A,,Clear,0,2013-10-05 20:30:00
11:00 PM,46.4,37.4,71,30.12,-9999.0,WSW,2.3,-,N/A,,Clear,240,2013-10-05 21:00:00
11:30 PM,46.4,37.4,71,30.09,-9999.0,West,3.5,-,N/A,,Clear,260,2013-10-05 21:30:00